createdAt,value
2022-11-17T00:01:39.294Z,19.24
2022-11-17T00:06:41.230Z,19.32
2022-11-17T00:12:06.541Z,19.32
2022-11-17T00:17:10.817Z,19.29
2022-11-17T00:22:12.574Z,19.28
2022-11-17T00:27:15.042Z,19.27
2022-11-17T00:32:36.743Z,19.33
2022-11-17T00:38:01.230Z,19.36
2022-11-17T00:43:03.078Z,19.33
2022-11-17T00:48:05.139Z,19.36
2022-11-17T00:53:07.328Z,19.28
2022-11-17T00:58:09.292Z,19.36
2022-11-17T01:03:10.997Z,19.30
2022-11-17T01:08:12.900Z,19.30
2022-11-17T01:13:18.071Z,19.34
2022-11-17T01:18:22.992Z,19.26
2022-11-17T01:23:24.921Z,19.15
2022-11-17T01:28:26.795Z,19.24
2022-11-17T01:33:28.877Z,19.20
2022-11-17T01:38:31.519Z,19.27
2022-11-17T01:43:50.264Z,19.28
2022-11-17T01:48:55.743Z,19.35
2022-11-17T01:53:58.409Z,19.36
2022-11-17T01:59:16.314Z,19.32
2022-11-17T02:04:18.100Z,19.28
2022-11-17T02:09:21.413Z,19.30
2022-11-17T02:14:23.319Z,19.37
2022-11-17T02:19:28.066Z,19.33
2022-11-17T02:25:07.155Z,19.22
2022-11-17T02:30:15.380Z,19.19
2022-11-17T02:35:27.592Z,19.28
2022-11-17T02:40:37.793Z,19.27
2022-11-17T02:45:50.824Z,19.27
2022-11-17T02:50:55.064Z,19.33
2022-11-17T02:56:00.168Z,19.23
2022-11-17T03:01:09.105Z,19.27
2022-11-17T03:06:29.924Z,19.20
2022-11-17T03:11:56.368Z,19.24
2022-11-17T03:17:16.799Z,19.22
2022-11-17T03:22:25.385Z,19.30
2022-11-17T03:27:34.459Z,19.33
2022-11-17T03:32:39.643Z,19.25
2022-11-17T03:37:49.896Z,19.25
2022-11-17T03:42:56.087Z,19.31
2022-11-17T03:48:04.519Z,19.29
2022-11-17T03:53:06.906Z,19.30
2022-11-17T03:58:14.817Z,19.32
2022-11-17T04:03:16.837Z,19.24
2022-11-17T04:08:19.953Z,19.24
2022-11-17T04:13:40.366Z,19.29
2022-11-17T04:18:42.257Z,19.28
2022-11-17T04:23:44.180Z,19.20
2022-11-17T04:28:49.486Z,19.21
2022-11-17T04:34:02.308Z,19.27
2022-11-17T04:39:04.459Z,19.16
2022-11-17T04:44:08.145Z,19.25
2022-11-17T04:49:10.025Z,19.18
2022-11-17T04:54:13.453Z,19.29
2022-11-17T04:59:15.378Z,19.24
2022-11-17T05:04:39.029Z,19.37
2022-11-17T05:09:40.960Z,19.29
2022-11-17T05:14:42.967Z,19.22
2022-11-17T05:19:46.944Z,19.29
2022-11-17T05:24:48.935Z,19.15
2022-11-17T05:29:50.872Z,19.17
2022-11-17T05:34:52.895Z,19.22
2022-11-17T05:39:55.080Z,19.25
2022-11-17T05:44:57.050Z,19.27
2022-11-17T05:49:59.221Z,19.16
2022-11-17T05:55:01.363Z,19.22
2022-11-17T06:00:04.977Z,19.26
2022-11-17T06:05:07.812Z,19.23
2022-11-17T06:10:10.330Z,19.18
2022-11-17T06:15:12.355Z,19.28
2022-11-17T06:20:22.173Z,19.25
2022-11-17T06:25:24.581Z,19.24
2022-11-17T06:30:27.455Z,19.24
2022-11-17T06:35:33.711Z,19.29
2022-11-17T06:40:35.635Z,19.30
2022-11-17T06:45:45.850Z,19.24
2022-11-17T06:50:48.472Z,19.24
2022-11-17T06:55:54.171Z,19.18
2022-11-17T07:01:02.241Z,19.07
2022-11-17T07:06:06.035Z,19.17
2022-11-17T07:11:13.928Z,19.17
2022-11-17T07:16:23.265Z,19.10
2022-11-17T07:21:25.754Z,19.16
2022-11-17T07:26:27.834Z,19.27
2022-11-17T07:31:29.713Z,19.16
2022-11-17T07:36:31.673Z,19.20
2022-11-17T07:41:33.476Z,19.07
2022-11-17T07:46:35.614Z,18.98
2022-11-17T07:51:37.887Z,19.03
2022-11-17T07:56:39.818Z,19.19
2022-11-17T08:01:42.454Z,19.26
2022-11-17T08:06:44.448Z,18.98
2022-11-17T08:11:46.452Z,19.05
2022-11-17T08:16:48.493Z,19.18
2022-11-17T08:21:51.329Z,19.17
2022-11-17T08:26:53.860Z,19.16
2022-11-17T08:31:55.915Z,19.13
2022-11-17T08:36:57.990Z,19.15
2022-11-17T08:42:00.007Z,19.07
2022-11-17T08:47:01.923Z,19.16
2022-11-17T08:52:04.068Z,19.20
2022-11-17T08:57:06.269Z,19.29
2022-11-17T09:02:08.405Z,19.22
2022-11-17T09:07:10.795Z,19.22
2022-11-17T09:12:13.024Z,19.29
2022-11-17T09:17:14.956Z,19.28
2022-11-17T09:22:17.200Z,19.20
2022-11-17T09:27:18.952Z,19.25
2022-11-17T09:32:21.013Z,19.27
2022-11-17T09:37:23.073Z,19.29
2022-11-17T09:42:25.169Z,19.33
2022-11-17T09:47:37.666Z,19.27
2022-11-17T09:53:17.045Z,19.28
2022-11-17T09:58:40.174Z,19.31
2022-11-17T10:03:48.127Z,19.37
2022-11-17T10:09:25.662Z,19.38
2022-11-17T10:14:29.281Z,19.36
2022-11-17T10:19:33.466Z,19.33
2022-11-17T10:24:36.777Z,19.29
2022-11-17T10:29:38.706Z,19.41
2022-11-17T10:34:41.693Z,19.33
2022-11-17T10:39:43.998Z,19.34
2022-11-17T10:44:51.705Z,19.36
2022-11-17T10:50:20.703Z,19.27
2022-11-17T10:55:25.913Z,19.29
2022-11-17T11:00:31.315Z,19.36
2022-11-17T11:05:33.170Z,19.30
2022-11-17T11:10:35.660Z,19.29
2022-11-17T11:15:37.894Z,19.34
2022-11-17T11:20:50.209Z,19.18
2022-11-17T11:25:57.337Z,19.14
2022-11-17T11:31:02.216Z,19.16
2022-11-17T11:36:16.194Z,19.27
2022-11-17T11:41:24.240Z,19.23
2022-11-17T11:47:04.705Z,19.28
2022-11-17T11:52:12.072Z,19.25
2022-11-17T11:57:17.031Z,19.32
2022-11-17T12:02:39.153Z,19.14
2022-11-17T12:07:47.994Z,19.26
2022-11-17T12:12:50.606Z,19.22
2022-11-17T12:17:52.776Z,19.29
2022-11-17T12:23:25.594Z,19.30
2022-11-17T12:28:27.730Z,19.34
2022-11-17T12:33:54.447Z,19.27
2022-11-17T12:38:57.420Z,19.25
2022-11-17T12:44:37.813Z,19.27
2022-11-17T12:49:58.335Z,19.27
2022-11-17T12:55:18.303Z,19.30
2022-11-17T13:00:23.706Z,19.32
2022-11-17T13:05:28.829Z,19.19
2022-11-17T13:10:32.006Z,19.25
2022-11-17T13:15:34.248Z,19.24
2022-11-17T13:20:39.528Z,19.27
2022-11-17T13:25:41.814Z,19.29
2022-11-17T13:30:46.948Z,19.22
2022-11-17T13:35:49.218Z,19.20
2022-11-17T13:40:53.798Z,19.20
2022-11-17T13:45:56.071Z,19.21
2022-11-17T13:51:20.769Z,19.16
2022-11-17T13:56:36.989Z,19.23
2022-11-17T14:01:39.021Z,19.22
2022-11-17T14:07:01.351Z,19.23
2022-11-17T14:12:10.865Z,19.28
2022-11-17T14:17:19.303Z,19.31
2022-11-17T14:22:31.061Z,19.27
2022-11-17T14:27:33.262Z,19.13
2022-11-17T14:32:35.078Z,19.25
2022-11-17T14:37:37.004Z,19.38
2022-11-17T14:42:41.833Z,19.28
2022-11-17T14:47:44.197Z,19.22
2022-11-17T14:52:46.219Z,19.22
2022-11-17T14:57:49.052Z,19.15
2022-11-17T15:02:51.497Z,19.24
2022-11-17T15:07:55.669Z,19.22
2022-11-17T15:12:57.942Z,19.25
2022-11-17T15:18:00.323Z,19.21
2022-11-17T15:23:03.563Z,19.31
2022-11-17T15:28:05.673Z,19.31
2022-11-17T15:33:07.304Z,19.21
2022-11-17T15:38:09.617Z,19.24
2022-11-17T15:43:11.892Z,19.30
2022-11-17T15:48:18.603Z,19.30
2022-11-17T15:53:20.917Z,19.32
2022-11-17T15:58:22.763Z,19.28
2022-11-17T16:03:24.862Z,19.39
2022-11-17T16:08:26.783Z,19.43
2022-11-17T16:13:29.697Z,19.25
2022-11-17T16:18:34.264Z,19.37
2022-11-17T16:23:49.812Z,19.29
2022-11-17T16:29:05.332Z,19.35
2022-11-17T16:34:12.269Z,19.39
2022-11-17T16:39:17.284Z,18.99
2022-11-17T16:44:19.429Z,19.07
2022-11-17T16:49:21.901Z,19.20
2022-11-17T16:54:23.941Z,19.37
2022-11-17T16:59:25.746Z,19.34
2022-11-17T17:04:33.286Z,19.41
2022-11-17T17:09:35.276Z,19.45
2022-11-17T17:14:37.334Z,19.47
2022-11-17T17:19:39.156Z,19.46
2022-11-17T17:24:41.167Z,19.46
2022-11-17T17:29:43.195Z,19.46
2022-11-17T17:34:44.980Z,19.51
2022-11-17T17:39:46.874Z,19.43
2022-11-17T17:44:48.732Z,19.42
2022-11-17T17:49:50.591Z,19.41
2022-11-17T17:54:52.412Z,19.52
2022-11-17T17:59:54.299Z,19.45
2022-11-17T18:04:56.174Z,19.35
2022-11-17T18:09:58.003Z,19.39
2022-11-17T18:15:00.056Z,19.50
2022-11-17T18:20:01.914Z,19.49
2022-11-17T18:25:07.840Z,19.53
2022-11-17T18:30:10.121Z,19.48
2022-11-17T18:35:12.110Z,19.45
2022-11-17T18:40:13.979Z,19.48
2022-11-17T18:45:16.022Z,19.40
2022-11-17T18:50:18.183Z,19.37
2022-11-17T18:55:20.245Z,19.33
2022-11-17T19:00:22.306Z,19.36
2022-11-17T19:05:24.400Z,19.42
2022-11-17T19:10:26.296Z,19.46
2022-11-17T19:15:28.243Z,19.45
2022-11-17T19:20:30.178Z,19.50
2022-11-17T19:25:32.313Z,19.44
2022-11-17T19:30:34.685Z,19.47
2022-11-17T19:35:42.687Z,19.40
2022-11-17T19:40:44.616Z,19.45
2022-11-17T19:45:46.598Z,19.49
2022-11-17T19:50:53.003Z,19.30
2022-11-17T19:56:00.028Z,19.43
2022-11-17T20:01:09.319Z,19.50
2022-11-17T20:06:13.018Z,19.45
2022-11-17T20:11:20.791Z,19.44
2022-11-17T20:16:25.745Z,19.40
2022-11-17T20:21:29.115Z,19.44
2022-11-17T20:26:33.235Z,19.43
2022-11-17T20:31:36.443Z,19.42
2022-11-17T20:36:38.336Z,19.40
2022-11-17T20:41:40.348Z,19.39
2022-11-17T20:46:42.305Z,19.42
2022-11-17T20:51:44.313Z,19.37
2022-11-17T20:56:46.134Z,19.44
2022-11-17T21:01:50.095Z,19.44
2022-11-17T21:06:52.653Z,19.45
2022-11-17T21:11:57.794Z,19.52
2022-11-17T21:17:00.919Z,19.51
2022-11-17T21:22:03.215Z,19.42
2022-11-17T21:27:05.533Z,19.40
2022-11-17T21:32:07.587Z,19.33
2022-11-17T21:37:09.821Z,19.13
2022-11-17T21:42:11.606Z,19.29
2022-11-17T21:47:13.630Z,19.32
2022-11-17T21:52:15.626Z,19.45
2022-11-17T21:57:17.584Z,19.43
2022-11-17T22:02:19.436Z,19.47
2022-11-17T22:07:21.510Z,19.55
2022-11-17T22:12:23.501Z,19.43
2022-11-17T22:17:25.657Z,19.42
2022-11-17T22:22:27.722Z,19.42
2022-11-17T22:27:29.952Z,19.34
2022-11-17T22:32:32.068Z,19.44
2022-11-17T22:37:34.049Z,19.41
2022-11-17T22:42:36.127Z,19.44
2022-11-17T22:47:38.252Z,19.48
2022-11-17T22:52:40.191Z,19.40
2022-11-17T22:57:42.093Z,19.39
2022-11-17T23:02:44.012Z,19.43
2022-11-17T23:07:45.993Z,19.39
2022-11-17T23:12:47.826Z,19.40
2022-11-17T23:17:49.624Z,19.45
2022-11-17T23:22:55.173Z,19.40
2022-11-17T23:27:57.043Z,19.40
2022-11-17T23:32:58.960Z,19.39
2022-11-17T23:38:00.835Z,19.40
2022-11-17T23:43:02.551Z,19.42
2022-11-17T23:48:04.446Z,19.42
2022-11-17T23:53:06.144Z,19.43
2022-11-17T23:58:08.009Z,19.39
